Time;durP1;ratioP1;P1;durP2;ratioP2;P2;SDS_P1;SDS_P2;PMS_P1;PMS_P2;Temp;Humidity;BMP_temperature;BMP_pressure;BME280_temperature;BME280_humidity;BME280_pressure;Samples;Min_cycle;Max_cycle;Signal;HPM_P1;HPM_P2
2022/01/08 00:00:54;;;;;;;8.13;5.37;;;5.70;99.90;;;;;;5026937;28;20197;-25
2022/01/08 00:03:24;;;;;;;8.43;5.03;;;5.60;99.90;;;;;;5027740;28;20228;-25
2022/01/08 00:05:56;;;;;;;12.40;5.07;;;5.60;99.90;;;;;;5027472;28;20294;-25
2022/01/08 00:08:26;;;;;;;9.03;5.30;;;5.60;99.90;;;;;;5027819;28;20204;-25
2022/01/08 00:10:54;;;;;;;9.93;5.00;;;5.60;99.90;;;;;;5027184;28;20312;-25
2022/01/08 00:13:24;;;;;;;9.00;5.10;;;5.50;99.90;;;;;;5059140;28;20267;-25
2022/01/08 00:15:51;;;;;;;10.70;5.40;;;5.50;99.90;;;;;;5026801;28;20232;-25
2022/01/08 00:18:20;;;;;;;8.67;5.13;;;5.50;99.90;;;;;;5027601;28;20698;-25
2022/01/08 00:20:47;;;;;;;9.80;5.03;;;5.50;99.90;;;;;;5024177;28;20290;-25
2022/01/08 00:23:15;;;;;;;13.33;4.17;;;5.50;99.90;;;;;;5027539;28;20209;-25
2022/01/08 00:25:42;;;;;;;12.30;4.53;;;5.50;99.90;;;;;;5027004;28;20290;-25
2022/01/08 00:28:09;;;;;;;10.27;4.77;;;5.50;99.90;;;;;;5027608;28;20203;-25
2022/01/08 00:30:37;;;;;;;9.13;4.40;;;5.40;99.90;;;;;;5026694;28;20209;-24
2022/01/08 00:33:04;;;;;;;13.10;4.60;;;5.40;99.90;;;;;;5027572;28;20581;-25
2022/01/08 00:35:32;;;;;;;9.07;4.27;;;5.40;99.90;;;;;;5029172;28;20305;-25
2022/01/08 00:38:00;;;;;;;8.17;3.87;;;5.40;99.90;;;;;;5046560;28;20610;-24
2022/01/08 00:40:28;;;;;;;7.93;4.07;;;5.40;99.90;;;;;;5030726;28;20949;-25
2022/01/08 00:42:56;;;;;;;8.23;3.63;;;5.40;99.90;;;;;;5031178;28;20204;-24
2022/01/08 00:45:23;;;;;;;6.40;3.53;;;5.40;99.90;;;;;;5062036;28;20371;-24
2022/01/08 00:47:51;;;;;;;7.63;3.53;;;5.40;99.90;;;;;;5031379;28;20745;-25
2022/01/08 00:50:18;;;;;;;7.53;3.27;;;5.40;99.90;;;;;;5023271;28;20307;-25
2022/01/08 00:52:46;;;;;;;6.70;3.07;;;5.40;99.90;;;;;;5042816;28;20215;-25
2022/01/08 00:55:13;;;;;;;7.67;3.37;;;5.30;99.90;;;;;;5030155;28;20699;-25
2022/01/08 00:57:43;;;;;;;7.30;2.70;;;5.40;99.90;;;;;;5031092;28;20232;-25
2022/01/08 01:00:13;;;;;;;6.00;3.27;;;5.30;99.90;;;;;;5029161;28;20205;-25
2022/01/08 01:02:43;;;;;;;9.17;3.10;;;5.30;99.90;;;;;;5031018;28;20219;-25
2022/01/08 01:05:13;;;;;;;8.53;2.90;;;5.30;99.90;;;;;;5030877;28;20197;-25
2022/01/08 01:07:40;;;;;;;6.40;2.80;;;5.30;99.90;;;;;;5030953;28;20201;-25
2022/01/08 01:10:09;;;;;;;5.80;2.70;;;5.20;99.90;;;;;;5030395;28;20232;-24
2022/01/08 01:12:36;;;;;;;7.27;2.87;;;5.20;99.90;;;;;;5030513;28;20296;-24
2022/01/08 01:15:09;;;;;;;4.70;2.50;;;5.20;99.90;;;;;;5045377;28;20742;-24
2022/01/08 01:17:36;;;;;;;7.57;2.60;;;5.20;99.90;;;;;;5045097;28;20229;-25
2022/01/08 01:20:06;;;;;;;5.00;2.40;;;5.10;99.90;;;;;;5030730;28;20231;-25
2022/01/08 01:22:47;;;;;;;5.87;2.63;;;5.10;99.90;;;;;;5030539;28;20197;-25
2022/01/08 01:25:19;;;;;;;5.80;2.33;;;5.10;99.90;;;;;;5030325;28;20690;-25
2022/01/08 01:28:06;;;;;;;7.87;2.30;;;5.10;99.90;;;;;;5045443;28;20229;-25
2022/01/08 01:47:28;;;;;;;5.33;1.87;;;4.90;99.90;;;;;;5028641;28;20201;-25
2022/01/08 01:49:58;;;;;;;4.13;1.90;;;4.90;99.90;;;;;;5025660;28;20233;-25
2022/01/08 01:52:25;;;;;;;4.70;2.07;;;4.90;99.90;;;;;;5010130;28;20248;-23
2022/01/08 01:54:52;;;;;;;4.40;2.07;;;4.90;99.90;;;;;;5010255;28;20217;-23
2022/01/08 01:57:20;;;;;;;8.37;2.47;;;4.90;99.90;;;;;;5009584;28;20237;-23
2022/01/08 01:59:48;;;;;;;4.43;2.30;;;4.90;99.90;;;;;;5014520;28;20201;-23
2022/01/08 02:02:20;;;;;;;4.27;2.10;;;4.80;99.90;;;;;;5028623;28;20213;-23
2022/01/08 02:04:50;;;;;;;7.10;2.10;;;4.80;99.90;;;;;;5029337;28;20643;-23
2022/01/08 02:07:21;;;;;;;4.90;1.97;;;4.80;99.90;;;;;;5044426;28;20235;-23
2022/01/08 02:09:48;;;;;;;3.33;1.70;;;4.80;99.90;;;;;;5029922;28;20507;-23
2022/01/08 02:12:18;;;;;;;5.77;1.77;;;4.80;99.90;;;;;;5027550;28;20268;-23
2022/01/08 02:14:46;;;;;;;5.17;1.93;;;4.80;99.90;;;;;;5029901;28;20208;-23
2022/01/08 02:17:13;;;;;;;3.20;1.83;;;4.80;99.90;;;;;;5028692;28;20628;-23
2022/01/08 02:19:42;;;;;;;5.60;2.23;;;4.70;99.90;;;;;;5025844;28;20228;-23
2022/01/08 02:22:15;;;;;;;4.07;2.03;;;4.70;99.90;;;;;;5029099;28;20197;-23
2022/01/08 02:24:48;;;;;;;7.10;2.10;;;4.70;99.90;;;;;;5029399;28;20232;-23
2022/01/08 02:27:16;;;;;;;4.73;2.40;;;4.70;99.90;;;;;;5028861;28;20204;-23
2022/01/08 02:29:44;;;;;;;4.20;2.40;;;4.70;99.90;;;;;;5028763;28;20774;-23
2022/01/08 02:32:15;;;;;;;7.43;2.97;;;4.60;99.90;;;;;;5026821;28;20205;-23
2022/01/08 02:34:45;;;;;;;5.50;2.60;;;4.60;99.90;;;;;;5044224;28;20679;-23
2022/01/08 02:37:18;;;;;;;5.50;3.20;;;4.60;99.90;;;;;;5028820;28;20291;-23
2022/01/08 02:39:50;;;;;;;9.17;3.70;;;4.60;99.90;;;;;;5029171;28;20537;-23
2022/01/08 02:42:19;;;;;;;5.77;3.07;;;4.60;99.90;;;;;;5028788;28;20209;-25
2022/01/08 02:44:48;;;;;;;6.87;3.73;;;4.60;99.90;;;;;;5029398;28;20223;-25
2022/01/08 02:47:20;;;;;;;6.03;3.97;;;4.60;99.90;;;;;;5028338;28;20231;-25
2022/01/08 02:49:52;;;;;;;7.33;4.40;;;4.60;99.90;;;;;;5024065;28;20241;-25
2022/01/08 02:52:23;;;;;;;7.40;4.50;;;4.60;99.90;;;;;;5014105;28;20215;-25
2022/01/08 02:54:50;;;;;;;5.97;4.37;;;4.50;99.90;;;;;;5027436;28;20247;-25
2022/01/08 02:57:18;;;;;;;7.33;4.40;;;4.60;99.90;;;;;;5028268;28;20239;-25
2022/01/08 02:59:45;;;;;;;9.27;4.70;;;4.60;99.90;;;;;;5060312;28;20278;-25
2022/01/08 03:02:13;;;;;;;7.07;5.03;;;4.50;99.90;;;;;;5027954;28;20251;-25
2022/01/08 03:04:44;;;;;;;9.33;5.10;;;4.50;99.90;;;;;;5027351;28;20652;-25
2022/01/08 03:07:11;;;;;;;8.83;4.90;;;4.50;99.90;;;;;;5028302;28;20701;-25
2022/01/08 03:09:41;;;;;;;9.73;5.70;;;4.50;99.90;;;;;;5028339;28;20271;-25
2022/01/08 03:12:09;;;;;;;10.03;5.63;;;4.50;99.90;;;;;;5027965;28;20219;-25
2022/01/08 03:14:36;;;;;;;9.70;5.50;;;4.50;99.90;;;;;;5028377;28;20296;-25
2022/01/08 03:17:04;;;;;;;9.60;5.67;;;4.50;99.90;;;;;;5027359;28;20316;-25
2022/01/08 03:19:34;;;;;;;10.87;6.13;;;4.40;99.90;;;;;;5028412;28;20580;-25
2022/01/08 03:22:06;;;;;;;11.83;6.17;;;4.40;99.90;;;;;;5008312;28;20229;-25
2022/01/08 03:24:36;;;;;;;12.93;6.57;;;4.40;99.90;;;;;;5008448;28;20292;-25
2022/01/08 03:27:04;;;;;;;11.97;6.70;;;4.40;99.90;;;;;;5017351;28;20221;-25
2022/01/08 03:29:31;;;;;;;10.30;6.43;;;4.40;99.90;;;;;;5028145;28;20566;-25
2022/01/08 03:32:01;;;;;;;11.93;6.67;;;4.40;99.90;;;;;;5042003;28;20209;-25
2022/01/08 03:34:28;;;;;;;11.10;6.50;;;4.40;99.90;;;;;;5027834;28;20292;-25
2022/01/08 03:36:55;;;;;;;10.03;6.80;;;4.40;99.90;;;;;;5027836;28;20237;-25
2022/01/08 03:39:22;;;;;;;10.73;6.70;;;4.30;99.90;;;;;;5028185;28;20578;-25
2022/01/08 03:41:50;;;;;;;11.40;7.07;;;4.30;99.90;;;;;;5027443;28;20197;-25
2022/01/08 03:44:17;;;;;;;11.27;6.77;;;4.30;99.90;;;;;;5059204;28;20235;-25
2022/01/08 03:46:47;;;;;;;10.53;7.17;;;4.30;99.90;;;;;;5026853;28;20221;-25
2022/01/08 03:49:24;;;;;;;11.93;7.10;;;4.30;99.90;;;;;;5027706;28;20319;-25
2022/01/08 03:51:55;;;;;;;10.73;6.60;;;4.30;99.90;;;;;;5027739;28;20208;-24
2022/01/08 03:54:28;;;;;;;9.90;6.80;;;4.30;99.90;;;;;;5028102;28;20695;-25
2022/01/08 03:56:55;;;;;;;10.77;7.07;;;4.20;99.90;;;;;;5027629;28;20224;-25
2022/01/08 03:59:22;;;;;;;10.23;6.37;;;4.20;99.90;;;;;;5027592;28;20201;-25
2022/01/08 04:01:50;;;;;;;15.17;7.47;;;4.20;99.90;;;;;;5026623;28;20671;-25
2022/01/08 04:04:17;;;;;;;12.70;6.60;;;4.20;99.90;;;;;;5027811;28;20215;-25
2022/01/08 04:06:44;;;;;;;12.30;6.50;;;4.20;99.90;;;;;;5027602;28;20201;-24
2022/01/08 04:09:11;;;;;;;10.43;6.57;;;4.20;99.90;;;;;;5058988;28;20205;-25
2022/01/08 04:11:41;;;;;;;12.57;6.83;;;4.10;99.90;;;;;;5027078;28;20304;-25
2022/01/08 04:14:11;;;;;;;9.53;6.20;;;4.10;99.90;;;;;;5027586;28;20248;-25
2022/01/08 04:16:47;;;;;;;13.23;6.83;;;4.10;99.90;;;;;;5041793;28;20270;-25
2022/01/08 04:19:16;;;;;;;10.37;6.60;;;4.10;99.90;;;;;;5026379;28;20676;-25
2022/01/08 04:22:11;;;;;;;10.93;6.23;;;4.10;99.90;;;;;;5010259;28;20201;-25
2022/01/08 04:24:39;;;;;;;12.07;6.73;;;4.10;99.90;;;;;;5007902;28;20317;-25
2022/01/08 04:27:07;;;;;;;12.30;7.33;;;4.00;99.90;;;;;;5005984;28;20239;-25
2022/01/08 04:29:37;;;;;;;13.47;6.70;;;4.00;99.90;;;;;;5007836;28;20308;-24
2022/01/08 04:32:04;;;;;;;12.47;7.57;;;4.00;99.90;;;;;;5006992;28;20247;-25
2022/01/08 04:34:34;;;;;;;12.73;7.17;;;4.00;99.90;;;;;;5014270;28;20589;-25
2022/01/08 04:37:01;;;;;;;10.43;7.33;;;4.00;99.90;;;;;;5042055;28;20217;-25
2022/01/08 04:39:28;;;;;;;12.07;7.57;;;4.00;99.90;;;;;;5027748;28;20215;-25
2022/01/08 04:41:58;;;;;;;11.57;7.73;;;4.00;99.90;;;;;;5027172;28;20201;-25
2022/01/08 04:44:25;;;;;;;13.53;7.40;;;4.00;99.90;;;;;;5027414;28;20679;-25
2022/01/08 04:46:52;;;;;;;12.60;7.77;;;4.00;99.90;;;;;;5024988;28;20205;-25
2022/01/08 04:49:19;;;;;;;12.80;7.80;;;3.90;99.90;;;;;;5027413;28;20208;-25
2022/01/08 04:51:53;;;;;;;11.60;7.50;;;3.90;99.90;;;;;;5027042;28;20228;-25
2022/01/08 04:54:23;;;;;;;12.37;7.23;;;3.90;99.90;;;;;;5027697;28;20210;-25
2022/01/08 04:56:53;;;;;;;12.30;8.47;;;3.90;99.90;;;;;;5026612;28;20212;-25
2022/01/08 04:59:20;;;;;;;13.67;7.30;;;3.90;99.90;;;;;;5027269;28;20572;-25
2022/01/08 05:01:47;;;;;;;13.53;7.43;;;3.90;99.90;;;;;;5025998;28;20228;-25
2022/01/08 05:04:15;;;;;;;11.70;8.20;;;3.90;99.90;;;;;;5027133;28;20224;-25
2022/01/08 05:06:42;;;;;;;12.80;8.13;;;3.90;99.90;;;;;;5027125;28;20200;-25
2022/01/08 05:09:12;;;;;;;15.20;10.53;;;3.90;99.90;;;;;;5027141;28;20244;-25
2022/01/08 05:11:40;;;;;;;13.50;8.67;;;3.90;99.90;;;;;;5026589;28;20193;-25
2022/01/08 05:14:09;;;;;;;13.23;8.87;;;3.90;99.90;;;;;;5027257;28;20679;-25
2022/01/08 05:16:40;;;;;;;13.80;8.93;;;3.90;99.90;;;;;;5057602;28;20298;-25
2022/01/08 05:19:07;;;;;;;12.97;8.80;;;3.90;99.90;;;;;;5027189;28;20338;-25
2022/01/08 05:21:38;;;;;;;14.13;9.70;;;3.90;99.90;;;;;;5011269;28;20205;-25
2022/01/08 05:24:06;;;;;;;14.77;9.00;;;3.90;99.90;;;;;;5010935;28;20206;-25
2022/01/08 05:26:33;;;;;;;13.47;9.63;;;3.90;99.90;;;;;;5023428;28;20243;-25
2022/01/08 05:29:00;;;;;;;14.60;10.07;;;3.90;99.90;;;;;;5062456;28;20197;-25
2022/01/08 05:31:29;;;;;;;16.30;9.60;;;3.90;99.90;;;;;;5029583;28;20209;-25
2022/01/08 05:33:56;;;;;;;15.23;10.33;;;3.90;99.90;;;;;;5030518;28;20209;-25
2022/01/08 05:36:24;;;;;;;14.23;10.47;;;4.00;99.90;;;;;;5030344;28;20235;-25
2022/01/08 05:38:51;;;;;;;14.37;10.30;;;4.00;99.90;;;;;;5030182;28;20228;-25
2022/01/08 05:41:18;;;;;;;17.90;11.17;;;4.00;99.90;;;;;;5028307;28;20232;-25
2022/01/08 05:43:46;;;;;;;16.10;10.23;;;4.00;99.90;;;;;;5030190;28;20780;-25
2022/01/08 05:46:17;;;;;;;14.20;11.07;;;4.00;99.90;;;;;;5029454;28;20679;-25
2022/01/08 05:48:44;;;;;;;19.83;11.47;;;4.00;99.90;;;;;;5028828;28;20675;-25
2022/01/08 05:51:14;;;;;;;16.60;10.87;;;4.10;99.90;;;;;;5025804;28;20801;-25
2022/01/08 05:53:41;;;;;;;15.07;11.03;;;4.10;99.90;;;;;;5025377;28;20320;-25
2022/01/08 05:56:08;;;;;;;16.73;11.80;;;4.10;99.90;;;;;;5009795;28;20233;-25
2022/01/08 05:58:37;;;;;;;17.13;11.33;;;4.10;99.90;;;;;;5008815;28;20586;-25
2022/01/08 06:01:06;;;;;;;16.07;11.50;;;4.10;99.90;;;;;;5028338;28;20223;-25
2022/01/08 06:03:33;;;;;;;17.77;12.00;;;4.10;99.90;;;;;;5029987;28;20247;-25
2022/01/08 06:06:01;;;;;;;16.87;12.13;;;4.10;99.90;;;;;;5029809;28;20245;-25
2022/01/08 06:08:31;;;;;;;20.93;13.03;;;4.10;99.90;;;;;;5029656;28;20307;-25
2022/01/08 06:11:00;;;;;;;16.40;12.17;;;4.10;99.90;;;;;;5029302;28;20208;-25
2022/01/08 06:13:30;;;;;;;19.10;12.70;;;4.10;99.90;;;;;;5029765;28;20219;-25
2022/01/08 06:15:57;;;;;;;19.77;12.90;;;4.10;99.90;;;;;;5028444;28;20710;-25
2022/01/08 06:18:27;;;;;;;18.07;12.10;;;4.20;99.90;;;;;;5028186;28;20227;-25
2022/01/08 06:20:55;;;;;;;20.17;13.03;;;4.10;99.90;;;;;;5029417;28;20220;-25
2022/01/08 06:23:23;;;;;;;18.97;12.23;;;4.20;99.90;;;;;;5029665;28;20212;-25
2022/01/08 06:25:50;;;;;;;19.57;12.67;;;4.10;99.90;;;;;;5029233;28;20209;-25
2022/01/08 06:28:19;;;;;;;18.40;12.97;;;4.20;99.90;;;;;;5029496;28;20208;-24
2022/01/08 06:30:49;;;;;;;21.13;12.30;;;4.20;99.90;;;;;;5028431;28;20192;-25
2022/01/08 06:33:18;;;;;;;16.43;11.63;;;4.20;99.90;;;;;;5027415;28;20608;-25
2022/01/08 06:35:45;;;;;;;20.83;12.67;;;4.20;99.90;;;;;;5027374;28;20648;-25
2022/01/08 06:38:12;;;;;;;18.10;12.60;;;4.20;99.90;;;;;;5027802;28;20228;-25
2022/01/08 06:40:42;;;;;;;21.40;11.83;;;4.20;99.90;;;;;;5027246;28;20208;-25
2022/01/08 06:43:09;;;;;;;18.17;11.90;;;4.20;99.90;;;;;;5029466;28;20214;-25
2022/01/08 06:45:36;;;;;;;19.93;12.60;;;4.20;99.90;;;;;;5028079;28;20207;-25
2022/01/08 06:48:04;;;;;;;24.47;12.33;;;4.20;99.90;;;;;;5028824;28;20292;-25
2022/01/08 06:50:32;;;;;;;18.30;11.80;;;4.20;99.90;;;;;;5026947;28;20271;-25
2022/01/08 06:52:59;;;;;;;20.13;12.67;;;4.20;99.90;;;;;;5010590;28;20227;-23
2022/01/08 06:55:26;;;;;;;20.00;12.53;;;4.20;99.90;;;;;;5008651;28;20639;-23
2022/01/08 06:57:55;;;;;;;19.97;12.63;;;4.20;99.90;;;;;;5024002;28;20217;-23
2022/01/08 07:00:23;;;;;;;26.10;13.60;;;4.20;99.90;;;;;;5008252;28;20208;-23
2022/01/08 07:02:50;;;;;;;18.20;11.83;;;4.20;99.90;;;;;;5008929;28;20576;-23
2022/01/08 07:05:17;;;;;;;21.80;11.57;;;4.20;99.90;;;;;;5008840;28;20683;-23
2022/01/08 07:07:45;;;;;;;20.70;11.73;;;4.20;99.90;;;;;;5017201;28;20758;-23
2022/01/08 07:10:15;;;;;;;20.43;12.17;;;4.20;99.90;;;;;;5028079;28;20244;-23
2022/01/08 07:12:44;;;;;;;21.37;11.90;;;4.20;99.90;;;;;;5027118;28;20197;-23
2022/01/08 07:15:12;;;;;;;20.13;13.20;;;4.20;99.90;;;;;;5028251;28;20205;-23
2022/01/08 07:17:40;;;;;;;22.93;12.93;;;4.20;99.90;;;;;;5028225;28;20287;-23
2022/01/08 07:20:10;;;;;;;23.37;13.10;;;4.20;99.90;;;;;;5028361;28;20231;-23
2022/01/08 07:22:40;;;;;;;17.90;12.07;;;4.20;99.90;;;;;;5028122;28;20209;-23
2022/01/08 07:25:08;;;;;;;18.63;11.77;;;4.30;99.90;;;;;;5028052;28;20201;-23
2022/01/08 07:27:38;;;;;;;25.10;13.10;;;4.30;99.90;;;;;;5028136;28;20683;-23
2022/01/08 07:30:07;;;;;;;19.43;12.43;;;4.30;99.90;;;;;;5028420;28;20292;-23
2022/01/08 07:32:46;;;;;;;19.43;12.50;;;4.30;99.90;;;;;;5027257;28;20204;-23
2022/01/08 07:35:14;;;;;;;22.10;12.83;;;4.30;99.90;;;;;;5028166;28;20201;-23
2022/01/08 07:37:43;;;;;;;20.10;12.97;;;4.30;99.90;;;;;;5026550;28;20224;-23
2022/01/08 07:40:12;;;;;;;21.97;13.70;;;4.30;99.90;;;;;;5027615;28;20671;-23
2022/01/08 07:42:42;;;;;;;22.97;13.43;;;4.30;99.90;;;;;;5026457;28;20227;-23
2022/01/08 07:45:15;;;;;;;22.63;13.03;;;4.30;99.90;;;;;;5027098;28;20220;-23
2022/01/08 07:47:43;;;;;;;18.87;12.33;;;4.30;99.90;;;;;;5026170;28;20204;-23
2022/01/08 07:50:11;;;;;;;22.47;12.63;;;4.40;99.90;;;;;;5027748;28;20730;-23
2022/01/08 07:52:39;;;;;;;22.87;13.17;;;4.40;99.90;;;;;;5027954;28;20262;-23
2022/01/08 07:55:09;;;;;;;21.70;14.00;;;4.40;99.90;;;;;;5027673;28;20208;-23
2022/01/08 07:57:40;;;;;;;22.67;13.37;;;4.40;99.90;;;;;;5027916;28;20297;-23
2022/01/08 08:00:08;;;;;;;25.03;12.80;;;4.40;99.90;;;;;;5027625;28;20764;-23
2022/01/08 08:02:36;;;;;;;25.07;12.47;;;4.40;99.90;;;;;;5027080;28;20237;-23
2022/01/08 08:05:04;;;;;;;22.43;13.30;;;4.40;99.90;;;;;;5027706;28;20216;-23
2022/01/08 08:07:39;;;;;;;25.77;12.37;;;4.40;99.90;;;;;;5027741;28;20197;-23
2022/01/08 08:10:22;;;;;;;19.40;11.53;;;4.50;99.90;;;;;;5027520;28;20189;-23
2022/01/08 08:12:53;;;;;;;17.60;10.30;;;4.50;99.90;;;;;;5027608;28;20299;-23
2022/01/08 08:15:23;;;;;;;19.83;11.20;;;4.50;99.90;;;;;;5026999;28;20636;-23
2022/01/08 08:17:53;;;;;;;21.77;12.13;;;4.50;99.90;;;;;;5027378;28;20679;-23
2022/01/08 08:20:25;;;;;;;17.50;10.80;;;4.50;99.90;;;;;;5027244;28;20223;-23
2022/01/08 08:22:54;;;;;;;18.03;10.83;;;4.50;99.90;;;;;;5013251;28;20698;-23
2022/01/08 08:25:22;;;;;;;18.70;10.97;;;4.50;99.90;;;;;;5007490;28;20204;-23
2022/01/08 08:27:50;;;;;;;16.60;9.07;;;4.60;99.90;;;;;;5007734;28;20210;-23
2022/01/08 08:30:18;;;;;;;13.77;9.37;;;4.60;99.90;;;;;;5006965;28;20197;-23
2022/01/08 08:32:45;;;;;;;14.80;8.90;;;4.60;99.90;;;;;;5015782;28;20671;-23
2022/01/08 08:35:15;;;;;;;17.67;9.57;;;4.60;99.90;;;;;;5027123;28;20201;-23
2022/01/08 08:37:43;;;;;;;15.03;8.07;;;4.60;99.90;;;;;;5027293;28;20240;-23
2022/01/08 08:40:15;;;;;;;12.83;8.03;;;4.60;99.90;;;;;;5025342;28;20196;-23
2022/01/08 08:42:43;;;;;;;14.47;8.20;;;4.70;99.90;;;;;;5025634;28;20220;-23
2022/01/08 08:45:13;;;;;;;14.27;7.30;;;4.70;99.90;;;;;;5027232;28;20644;-23
2022/01/08 08:47:41;;;;;;;11.47;6.40;;;4.70;99.90;;;;;;5025485;28;20244;-23
2022/01/08 08:50:11;;;;;;;13.17;6.80;;;4.70;99.90;;;;;;5027183;28;20241;-23
2022/01/08 08:52:39;;;;;;;15.10;6.87;;;4.70;99.90;;;;;;5027369;28;20233;-23
2022/01/08 08:55:09;;;;;;;11.97;6.83;;;4.70;99.90;;;;;;5008734;28;20208;-25
2022/01/08 08:57:37;;;;;;;13.33;6.47;;;4.80;99.90;;;;;;5011205;28;20630;-23
2022/01/08 09:00:07;;;;;;;9.40;6.00;;;4.80;99.90;;;;;;5011169;28;20783;-23
2022/01/08 09:02:35;;;;;;;9.70;6.37;;;4.80;99.90;;;;;;5009156;28;20292;-23
2022/01/08 09:05:05;;;;;;;11.90;6.57;;;4.80;99.90;;;;;;5011228;28;20629;-23
2022/01/08 09:07:34;;;;;;;11.27;6.73;;;4.90;99.90;;;;;;5040715;28;20201;-23
2022/01/08 09:10:07;;;;;;;12.27;6.03;;;4.90;99.90;;;;;;5029507;28;20687;-23
2022/01/08 09:12:34;;;;;;;11.13;6.10;;;4.90;99.90;;;;;;5030838;28;20201;-23
2022/01/08 09:15:01;;;;;;;13.90;6.80;;;5.00;99.90;;;;;;5030734;28;20215;-23
2022/01/08 09:17:29;;;;;;;10.83;5.67;;;5.00;99.90;;;;;;5029617;28;20292;-23
2022/01/08 09:19:59;;;;;;;13.73;6.07;;;5.00;99.90;;;;;;5030891;28;20255;-23
2022/01/08 09:22:28;;;;;;;8.57;5.70;;;5.10;99.90;;;;;;5030152;28;20213;-23
2022/01/08 09:24:56;;;;;;;13.90;5.80;;;5.10;99.90;;;;;;5030713;28;20657;-24
2022/01/08 09:27:23;;;;;;;11.07;5.43;;;5.10;99.90;;;;;;5030110;28;20231;-23
2022/01/08 09:29:51;;;;;;;12.33;5.67;;;5.10;99.90;;;;;;5030416;28;20209;-23
2022/01/08 09:32:18;;;;;;;8.53;5.43;;;5.10;99.90;;;;;;5029525;28;20641;-23
2022/01/08 09:34:46;;;;;;;11.77;5.37;;;5.20;99.90;;;;;;5030197;28;20200;-23
2022/01/08 09:37:13;;;;;;;11.43;5.57;;;5.20;99.90;;;;;;5029973;28;20475;-23
2022/01/08 09:39:41;;;;;;;8.30;5.30;;;5.20;99.90;;;;;;5030223;28;20228;-24
2022/01/08 09:42:13;;;;;;;10.57;5.73;;;5.20;99.90;;;;;;5029691;28;20335;-23
2022/01/08 09:44:44;;;;;;;8.43;5.33;;;5.30;99.90;;;;;;5030187;28;20217;-23
2022/01/08 09:47:13;;;;;;;9.93;5.40;;;5.30;99.90;;;;;;5027624;28;20219;-23
2022/01/08 09:49:42;;;;;;;7.90;5.03;;;5.30;99.90;;;;;;5028734;28;20310;-23
2022/01/08 09:52:10;;;;;;;10.10;5.20;;;5.40;99.90;;;;;;5044935;28;20258;-23
2022/01/08 09:54:38;;;;;;;9.03;5.63;;;5.40;99.90;;;;;;5015503;28;20312;-23
2022/01/08 09:57:07;;;;;;;8.77;4.90;;;5.40;99.90;;;;;;5012905;28;20208;-23
2022/01/08 09:59:38;;;;;;;11.53;5.13;;;5.40;99.90;;;;;;5030044;28;20645;-23
2022/01/08 10:02:06;;;;;;;7.50;4.47;;;5.50;99.90;;;;;;5060939;28;20205;-23
2022/01/08 10:04:35;;;;;;;7.43;4.90;;;5.50;99.90;;;;;;5029750;28;20215;-23
2022/01/08 10:07:25;;;;;;;7.47;5.40;;;5.50;99.90;;;;;;5029373;28;20228;-23
2022/01/08 10:09:59;;;;;;;12.20;5.20;;;5.50;99.90;;;;;;5029776;28;20299;-23
2022/01/08 10:12:53;;;;;;;7.07;4.93;;;5.60;99.90;;;;;;5028658;28;20216;-23
2022/01/08 10:18:33;;;;;;;8.57;5.10;;;5.60;99.90;;;;;;5029532;28;20774;-25
2022/01/08 10:21:14;;;;;;;7.20;4.10;;;5.70;99.90;;;;;;5027862;28;20211;-25
2022/01/08 10:23:49;;;;;;;9.87;5.20;;;5.70;99.90;;;;;;5029848;28;20204;-25
2022/01/08 10:26:20;;;;;;;6.90;4.60;;;5.70;99.90;;;;;;5027382;28;20287;-25
2022/01/08 10:28:56;;;;;;;9.00;4.70;;;5.70;99.90;;;;;;5044220;28;20221;-25
2022/01/08 10:31:23;;;;;;;7.00;4.30;;;5.80;99.90;;;;;;5028224;28;20209;-25
2022/01/08 10:34:06;;;;;;;6.27;4.17;;;5.80;99.90;;;;;;5044269;28;20667;-25
2022/01/08 10:36:42;;;;;;;7.47;4.53;;;5.80;99.90;;;;;;5028913;28;20806;-25
2022/01/08 10:39:20;;;;;;;7.47;3.57;;;5.90;99.90;;;;;;5029411;28;20611;-25
2022/01/08 10:41:50;;;;;;;7.67;3.67;;;5.90;99.90;;;;;;5026985;28;20207;-25
2022/01/08 10:44:18;;;;;;;8.57;3.60;;;5.90;99.90;;;;;;5029092;28;20201;-25
2022/01/08 10:46:51;;;;;;;5.17;3.30;;;6.00;99.90;;;;;;5028135;28;20220;-26
2022/01/08 10:49:36;;;;;;;6.03;3.30;;;6.00;99.90;;;;;;5028736;28;20228;-25
2022/01/08 10:52:12;;;;;;;8.40;3.87;;;6.00;99.90;;;;;;5043707;28;20326;-24
2022/01/08 10:54:54;;;;;;;6.33;3.40;;;6.10;99.90;;;;;;5013658;28;20723;-25
2022/01/08 10:57:31;;;;;;;5.90;3.33;;;6.10;99.90;;;;;;5008782;28;20216;-25
2022/01/08 10:59:58;;;;;;;5.43;3.57;;;6.10;99.90;;;;;;5007888;28;20225;-25
2022/01/08 11:02:28;;;;;;;5.57;3.73;;;6.10;99.90;;;;;;5008409;28;20664;-25
2022/01/08 11:04:58;;;;;;;5.73;3.10;;;6.20;99.90;;;;;;5010574;28;20670;-25
2022/01/08 11:07:27;;;;;;;4.63;3.00;;;6.20;99.90;;;;;;5028175;28;20298;-25
2022/01/08 11:10:04;;;;;;;8.67;3.33;;;6.20;99.90;;;;;;5028515;28;20224;-25
2022/01/08 11:12:38;;;;;;;5.53;3.00;;;6.20;99.90;;;;;;5028083;28;20541;-25
2022/01/08 11:17:43;;;;;;;4.30;3.10;;;6.30;99.90;;;;;;5027960;28;20210;-25
2022/01/08 11:20:20;;;;;;;5.40;3.40;;;6.30;99.90;;;;;;5027079;28;20259;-24
2022/01/08 11:22:50;;;;;;;5.13;2.90;;;6.30;99.90;;;;;;5043279;28;20204;-25
2022/01/08 11:25:21;;;;;;;6.07;3.03;;;6.40;99.90;;;;;;5027394;28;20207;-25
2022/01/08 11:28:10;;;;;;;8.30;2.90;;;6.40;99.90;;;;;;5028233;28;20215;-25
2022/01/08 11:30:51;;;;;;;6.03;2.73;;;6.40;99.90;;;;;;5027631;28;20299;-25
2022/01/08 11:33:24;;;;;;;4.83;2.80;;;6.50;99.90;;;;;;5028261;28;20683;-25
2022/01/08 11:35:53;;;;;;;8.53;2.90;;;6.50;99.90;;;;;;5026232;28;20737;-24
2022/01/08 11:38:26;;;;;;;6.63;3.00;;;6.50;99.90;;;;;;5026600;28;20196;-25
2022/01/08 11:40:55;;;;;;;3.70;2.60;;;6.50;99.90;;;;;;5026115;28;20248;-25
2022/01/08 11:43:24;;;;;;;3.07;2.40;;;6.60;99.90;;;;;;5028060;28;20201;-25
2022/01/08 11:45:53;;;;;;;4.73;2.07;;;6.60;99.90;;;;;;5027069;28;20201;-25
2022/01/08 11:48:44;;;;;;;5.50;2.43;;;6.60;99.90;;;;;;5043223;28;20331;-25
2022/01/08 11:51:24;;;;;;;3.70;2.37;;;6.60;99.90;;;;;;5027724;28;20244;-24
2022/01/08 11:53:57;;;;;;;4.70;2.40;;;6.60;99.90;;;;;;5042802;28;20598;-25
2022/01/08 11:56:37;;;;;;;4.70;2.27;;;6.60;99.90;;;;;;5005991;28;20228;-25
2022/01/08 11:59:08;;;;;;;5.90;2.17;;;6.70;99.90;;;;;;5008248;28;20389;-25
2022/01/08 12:01:39;;;;;;;6.17;2.47;;;6.70;99.90;;;;;;5007353;28;20700;-23
2022/01/08 12:04:23;;;;;;;5.70;2.40;;;6.70;99.90;;;;;;5008362;28;20202;-23
2022/01/08 12:06:50;;;;;;;3.47;1.90;;;6.70;99.90;;;;;;5007842;28;20216;-23
2022/01/08 12:09:26;;;;;;;5.13;2.23;;;6.70;99.90;;;;;;5008084;28;20312;-23
2022/01/08 12:11:57;;;;;;;4.20;2.07;;;6.70;99.90;;;;;;5007535;28;20211;-23
2022/01/08 12:14:36;;;;;;;6.50;2.30;;;6.70;99.90;;;;;;5036690;28;20324;-23
2022/01/08 12:17:15;;;;;;;4.60;2.00;;;6.70;99.90;;;;;;5026672;28;20200;-23
2022/01/08 12:19:59;;;;;;;3.17;1.73;;;6.70;99.90;;;;;;5027580;28;20693;-23
2022/01/08 12:22:31;;;;;;;5.83;1.90;;;6.80;99.90;;;;;;5027919;28;20217;-23
2022/01/08 12:25:01;;;;;;;3.13;2.00;;;6.80;99.90;;;;;;5021843;28;20205;-23
2022/01/08 12:27:35;;;;;;;3.57;1.90;;;6.80;99.90;;;;;;5007409;28;20202;-23
2022/01/08 12:30:17;;;;;;;3.50;1.93;;;6.80;99.90;;;;;;5010577;28;20208;-25
2022/01/08 12:32:50;;;;;;;4.30;2.00;;;6.80;99.90;;;;;;5031410;28;20247;-25
2022/01/08 12:35:19;;;;;;;3.97;1.93;;;6.80;99.90;;;;;;5031385;28;20247;-25
2022/01/08 12:37:59;;;;;;;2.57;2.07;;;6.80;99.90;;;;;;5031473;28;20789;-25
2022/01/08 12:40:35;;;;;;;3.03;2.00;;;6.80;99.90;;;;;;5030964;28;20228;-25
2022/01/08 12:43:30;;;;;;;2.87;1.93;;;6.80;99.90;;;;;;5031505;28;20200;-25
2022/01/08 12:46:14;;;;;;;3.70;2.10;;;6.80;99.90;;;;;;5045709;28;20204;-25
2022/01/08 12:49:03;;;;;;;4.87;2.10;;;6.80;99.90;;;;;;5030758;28;20211;-25
2022/01/08 12:51:50;;;;;;;5.30;2.30;;;6.80;99.90;;;;;;5030945;28;20209;-25
2022/01/08 12:54:18;;;;;;;3.43;2.50;;;6.80;99.90;;;;;;5029713;28;20208;-25
2022/01/08 12:56:50;;;;;;;3.70;2.40;;;6.80;99.90;;;;;;5014149;28;20216;-24
2022/01/08 12:59:18;;;;;;;3.07;2.33;;;6.80;99.90;;;;;;5026094;28;20229;-25
2022/01/08 13:01:47;;;;;;;3.90;2.33;;;6.90;99.90;;;;;;5008796;28;20220;-25
2022/01/08 13:04:17;;;;;;;3.57;2.47;;;6.90;99.90;;;;;;5015163;28;20315;-25
2022/01/08 13:06:47;;;;;;;2.40;2.20;;;6.90;99.90;;;;;;5062289;28;20263;-25
2022/01/08 13:09:15;;;;;;;2.90;1.90;;;6.90;99.90;;;;;;5030660;28;20223;-25
2022/01/08 13:11:46;;;;;;;2.37;1.70;;;6.90;99.90;;;;;;5030131;28;20616;-25
2022/01/08 13:14:16;;;;;;;3.83;1.77;;;6.90;99.90;;;;;;5030684;28;20771;-23
2022/01/08 13:16:43;;;;;;;2.83;1.80;;;7.00;99.90;;;;;;5029845;28;20614;-23
2022/01/08 13:19:12;;;;;;;2.00;1.70;;;7.00;99.90;;;;;;5030432;28;20340;-23
2022/01/08 13:21:46;;;;;;;2.37;1.50;;;7.00;99.90;;;;;;5030208;28;20279;-23
2022/01/08 13:24:13;;;;;;;3.17;1.80;;;7.00;99.90;;;;;;5030689;28;20205;-25
2022/01/08 13:26:42;;;;;;;3.07;1.53;;;7.00;99.90;;;;;;5045071;28;20247;-25
2022/01/08 13:29:34;;;;;;;2.77;1.70;;;7.10;99.90;;;;;;5028888;28;20626;-25